sensor_id;sensor_type;location;lat;lon;timestamp;P1;durP1;ratioP1;P2;durP2;ratioP2
15071;SDS011;7635;56.696;13.002;2022-12-01T00:01:22;1.53;;;1.30;;
15071;SDS011;7635;56.696;13.002;2022-12-01T00:03:49;2.73;;;1.60;;
15071;SDS011;7635;56.696;13.002;2022-12-01T00:06:18;2.00;;;1.50;;
15071;SDS011;7635;56.696;13.002;2022-12-01T00:08:46;1.50;;;1.40;;
15071;SDS011;7635;56.696;13.002;2022-12-01T00:11:32;1.70;;;1.33;;
15071;SDS011;7635;56.696;13.002;2022-12-01T00:13:59;1.77;;;1.50;;
15071;SDS011;7635;56.696;13.002;2022-12-01T00:16:26;2.07;;;1.53;;
15071;SDS011;7635;56.696;13.002;2022-12-01T00:18:53;1.33;;;1.23;;
15071;SDS011;7635;56.696;13.002;2022-12-01T00:21:22;1.37;;;1.27;;
15071;SDS011;7635;56.696;13.002;2022-12-01T00:23:50;1.43;;;1.30;;
15071;SDS011;7635;56.696;13.002;2022-12-01T00:26:18;1.40;;;1.30;;
15071;SDS011;7635;56.696;13.002;2022-12-01T00:28:47;1.23;;;1.17;;
15071;SDS011;7635;56.696;13.002;2022-12-01T00:31:14;1.43;;;1.33;;
15071;SDS011;7635;56.696;13.002;2022-12-01T00:33:40;1.35;;;1.25;;
15071;SDS011;7635;56.696;13.002;2022-12-01T00:36:08;1.13;;;1.10;;
15071;SDS011;7635;56.696;13.002;2022-12-01T00:38:36;1.00;;;1.00;;
15071;SDS011;7635;56.696;13.002;2022-12-01T00:41:03;1.30;;;1.20;;
15071;SDS011;7635;56.696;13.002;2022-12-01T00:43:30;1.47;;;1.33;;
15071;SDS011;7635;56.696;13.002;2022-12-01T00:45:57;1.00;;;1.00;;
15071;SDS011;7635;56.696;13.002;2022-12-01T00:48:24;1.30;;;1.20;;
15071;SDS011;7635;56.696;13.002;2022-12-01T00:50:51;1.10;;;1.00;;
15071;SDS011;7635;56.696;13.002;2022-12-01T00:53:19;1.10;;;1.10;;
15071;SDS011;7635;56.696;13.002;2022-12-01T00:55:47;1.20;;;1.10;;
15071;SDS011;7635;56.696;13.002;2022-12-01T00:58:14;1.10;;;1.10;;
15071;SDS011;7635;56.696;13.002;2022-12-01T01:00:41;1.20;;;1.10;;
15071;SDS011;7635;56.696;13.002;2022-12-01T01:03:08;1.70;;;1.27;;
15071;SDS011;7635;56.696;13.002;2022-12-01T01:05:35;1.57;;;1.30;;
15071;SDS011;7635;56.696;13.002;2022-12-01T01:08:04;1.07;;;1.07;;
15071;SDS011;7635;56.696;13.002;2022-12-01T01:10:32;1.40;;;1.30;;
15071;SDS011;7635;56.696;13.002;2022-12-01T01:13:00;1.07;;;1.00;;
15071;SDS011;7635;56.696;13.002;2022-12-01T01:15:27;1.40;;;1.30;;
15071;SDS011;7635;56.696;13.002;2022-12-01T01:17:53;1.53;;;1.37;;
15071;SDS011;7635;56.696;13.002;2022-12-01T01:20:20;1.37;;;1.20;;
15071;SDS011;7635;56.696;13.002;2022-12-01T01:22:47;1.43;;;1.33;;
15071;SDS011;7635;56.696;13.002;2022-12-01T01:25:14;1.33;;;1.23;;
15071;SDS011;7635;56.696;13.002;2022-12-01T01:27:41;1.40;;;1.30;;
15071;SDS011;7635;56.696;13.002;2022-12-01T01:30:09;1.48;;;1.08;;
15071;SDS011;7635;56.696;13.002;2022-12-01T01:32:37;1.23;;;1.20;;
15071;SDS011;7635;56.696;13.002;2022-12-01T01:35:04;1.98;;;1.50;;
15071;SDS011;7635;56.696;13.002;2022-12-01T01:37:32;1.40;;;1.30;;
15071;SDS011;7635;56.696;13.002;2022-12-01T01:39:59;1.40;;;1.30;;
15071;SDS011;7635;56.696;13.002;2022-12-01T01:42:26;1.40;;;1.30;;
15071;SDS011;7635;56.696;13.002;2022-12-01T01:44:53;1.10;;;1.05;;
15071;SDS011;7635;56.696;13.002;2022-12-01T01:47:23;1.33;;;1.23;;
15071;SDS011;7635;56.696;13.002;2022-12-01T01:49:52;1.30;;;1.20;;
15071;SDS011;7635;56.696;13.002;2022-12-01T01:52:20;1.00;;;1.00;;
15071;SDS011;7635;56.696;13.002;2022-12-01T01:54:48;1.30;;;1.20;;
15071;SDS011;7635;56.696;13.002;2022-12-01T01:57:18;1.60;;;1.50;;
15071;SDS011;7635;56.696;13.002;2022-12-01T01:59:50;1.20;;;1.10;;
15071;SDS011;7635;56.696;13.002;2022-12-01T02:02:22;1.77;;;1.27;;
15071;SDS011;7635;56.696;13.002;2022-12-01T02:04:51;1.75;;;1.50;;
15071;SDS011;7635;56.696;13.002;2022-12-01T02:07:26;1.38;;;1.27;;
15071;SDS011;7635;56.696;13.002;2022-12-01T02:09:53;1.95;;;1.65;;
15071;SDS011;7635;56.696;13.002;2022-12-01T02:12:28;1.50;;;1.40;;
15071;SDS011;7635;56.696;13.002;2022-12-01T02:15:07;2.10;;;1.77;;
15071;SDS011;7635;56.696;13.002;2022-12-01T02:17:46;1.60;;;1.50;;
15071;SDS011;7635;56.696;13.002;2022-12-01T02:23:53;1.80;;;1.60;;
15071;SDS011;7635;56.696;13.002;2022-12-01T02:26:45;1.60;;;1.50;;
15071;SDS011;7635;56.696;13.002;2022-12-01T02:29:26;2.45;;;1.67;;
15071;SDS011;7635;56.696;13.002;2022-12-01T02:32:11;1.57;;;1.43;;
15071;SDS011;7635;56.696;13.002;2022-12-01T02:34:45;1.70;;;1.60;;
15071;SDS011;7635;56.696;13.002;2022-12-01T02:37:20;1.65;;;1.55;;
15071;SDS011;7635;56.696;13.002;2022-12-01T02:39:53;1.55;;;1.45;;
15071;SDS011;7635;56.696;13.002;2022-12-01T02:42:24;1.37;;;1.27;;
15071;SDS011;7635;56.696;13.002;2022-12-01T02:45:13;1.75;;;1.45;;
15071;SDS011;7635;56.696;13.002;2022-12-01T02:47:47;1.92;;;1.67;;
15071;SDS011;7635;56.696;13.002;2022-12-01T02:50:17;2.80;;;1.90;;
15071;SDS011;7635;56.696;13.002;2022-12-01T02:52:47;1.92;;;1.67;;
15071;SDS011;7635;56.696;13.002;2022-12-01T02:55:14;2.03;;;1.70;;
15071;SDS011;7635;56.696;13.002;2022-12-01T02:57:41;1.60;;;1.50;;
15071;SDS011;7635;56.696;13.002;2022-12-01T03:00:08;1.50;;;1.40;;
15071;SDS011;7635;56.696;13.002;2022-12-01T03:02:38;2.22;;;1.75;;
15071;SDS011;7635;56.696;13.002;2022-12-01T03:05:17;1.58;;;1.33;;
15071;SDS011;7635;56.696;13.002;2022-12-01T03:07:50;1.70;;;1.55;;
15071;SDS011;7635;56.696;13.002;2022-12-01T03:10:26;2.22;;;1.83;;
15071;SDS011;7635;56.696;13.002;2022-12-01T03:13:05;2.00;;;1.60;;
15071;SDS011;7635;56.696;13.002;2022-12-01T03:15:38;3.08;;;2.05;;
15071;SDS011;7635;56.696;13.002;2022-12-01T03:18:13;2.00;;;1.63;;
15071;SDS011;7635;56.696;13.002;2022-12-01T03:20:50;1.70;;;1.40;;
15071;SDS011;7635;56.696;13.002;2022-12-01T03:23:24;1.70;;;1.47;;
15071;SDS011;7635;56.696;13.002;2022-12-01T03:25:56;2.25;;;1.77;;
15071;SDS011;7635;56.696;13.002;2022-12-01T03:28:28;4.55;;;1.63;;
15071;SDS011;7635;56.696;13.002;2022-12-01T03:30:58;2.45;;;1.77;;
15071;SDS011;7635;56.696;13.002;2022-12-01T03:33:30;2.00;;;1.80;;
15071;SDS011;7635;56.696;13.002;2022-12-01T03:36:02;1.73;;;1.58;;
15071;SDS011;7635;56.696;13.002;2022-12-01T03:38:34;2.40;;;1.90;;
15071;SDS011;7635;56.696;13.002;2022-12-01T03:41:03;1.63;;;1.52;;
15071;SDS011;7635;56.696;13.002;2022-12-01T03:43:35;2.03;;;1.80;;
15071;SDS011;7635;56.696;13.002;2022-12-01T03:46:06;1.67;;;1.58;;
15071;SDS011;7635;56.696;13.002;2022-12-01T03:48:35;2.85;;;1.88;;
15071;SDS011;7635;56.696;13.002;2022-12-01T03:51:05;1.90;;;1.73;;
15071;SDS011;7635;56.696;13.002;2022-12-01T03:53:42;2.15;;;1.95;;
15071;SDS011;7635;56.696;13.002;2022-12-01T03:56:16;1.70;;;1.60;;
15071;SDS011;7635;56.696;13.002;2022-12-01T03:58:47;2.05;;;1.85;;
15071;SDS011;7635;56.696;13.002;2022-12-01T04:01:17;2.43;;;1.83;;
15071;SDS011;7635;56.696;13.002;2022-12-01T04:03:46;2.15;;;1.83;;
15071;SDS011;7635;56.696;13.002;2022-12-01T04:06:14;2.28;;;1.65;;
15071;SDS011;7635;56.696;13.002;2022-12-01T04:08:41;2.30;;;1.80;;
15071;SDS011;7635;56.696;13.002;2022-12-01T04:11:08;2.35;;;2.08;;
15071;SDS011;7635;56.696;13.002;2022-12-01T04:13:48;2.08;;;1.80;;
15071;SDS011;7635;56.696;13.002;2022-12-01T04:16:15;2.07;;;1.90;;
15071;SDS011;7635;56.696;13.002;2022-12-01T04:18:42;2.63;;;1.97;;
15071;SDS011;7635;56.696;13.002;2022-12-01T04:21:08;1.92;;;1.70;;
15071;SDS011;7635;56.696;13.002;2022-12-01T04:23:37;2.17;;;1.98;;
15071;SDS011;7635;56.696;13.002;2022-12-01T04:26:21;3.10;;;1.88;;
15071;SDS011;7635;56.696;13.002;2022-12-01T04:28:47;4.80;;;1.90;;
15071;SDS011;7635;56.696;13.002;2022-12-01T04:31:14;1.95;;;1.75;;
15071;SDS011;7635;56.696;13.002;2022-12-01T04:33:41;2.40;;;1.90;;
15071;SDS011;7635;56.696;13.002;2022-12-01T04:36:08;1.95;;;1.58;;
15071;SDS011;7635;56.696;13.002;2022-12-01T04:38:36;1.35;;;1.25;;
15071;SDS011;7635;56.696;13.002;2022-12-01T04:41:06;2.30;;;2.00;;
15071;SDS011;7635;56.696;13.002;2022-12-01T04:43:34;2.00;;;1.83;;
15071;SDS011;7635;56.696;13.002;2022-12-01T04:46:01;1.77;;;1.58;;
15071;SDS011;7635;56.696;13.002;2022-12-01T04:48:28;1.85;;;1.55;;
15071;SDS011;7635;56.696;13.002;2022-12-01T04:50:54;1.52;;;1.42;;
15071;SDS011;7635;56.696;13.002;2022-12-01T04:53:21;1.40;;;1.30;;
15071;SDS011;7635;56.696;13.002;2022-12-01T04:55:49;2.07;;;1.70;;
15071;SDS011;7635;56.696;13.002;2022-12-01T04:58:16;3.00;;;1.98;;
15071;SDS011;7635;56.696;13.002;2022-12-01T05:00:50;1.98;;;1.77;;
15071;SDS011;7635;56.696;13.002;2022-12-01T05:03:17;2.35;;;1.92;;
15071;SDS011;7635;56.696;13.002;2022-12-01T05:05:44;1.67;;;1.58;;
15071;SDS011;7635;56.696;13.002;2022-12-01T05:08:11;2.27;;;1.67;;
15071;SDS011;7635;56.696;13.002;2022-12-01T05:10:37;2.03;;;1.77;;
15071;SDS011;7635;56.696;13.002;2022-12-01T05:13:06;1.98;;;1.63;;
15071;SDS011;7635;56.696;13.002;2022-12-01T05:15:32;2.40;;;1.97;;
15071;SDS011;7635;56.696;13.002;2022-12-01T05:17:59;3.22;;;2.38;;
15071;SDS011;7635;56.696;13.002;2022-12-01T05:20:26;3.50;;;2.00;;
15071;SDS011;7635;56.696;13.002;2022-12-01T05:23:10;2.47;;;2.00;;
15071;SDS011;7635;56.696;13.002;2022-12-01T05:25:37;2.75;;;2.03;;
15071;SDS011;7635;56.696;13.002;2022-12-01T05:28:03;3.50;;;2.07;;
15071;SDS011;7635;56.696;13.002;2022-12-01T05:30:32;2.40;;;2.10;;
15071;SDS011;7635;56.696;13.002;2022-12-01T05:32:59;2.22;;;1.85;;
15071;SDS011;7635;56.696;13.002;2022-12-01T05:35:25;1.83;;;1.65;;
15071;SDS011;7635;56.696;13.002;2022-12-01T05:37:52;2.80;;;1.90;;
15071;SDS011;7635;56.696;13.002;2022-12-01T05:40:19;1.98;;;1.80;;
15071;SDS011;7635;56.696;13.002;2022-12-01T05:42:46;3.37;;;1.83;;
15071;SDS011;7635;56.696;13.002;2022-12-01T05:45:14;2.58;;;2.10;;
15071;SDS011;7635;56.696;13.002;2022-12-01T05:47:41;2.90;;;1.98;;
15071;SDS011;7635;56.696;13.002;2022-12-01T05:50:08;2.22;;;2.00;;
15071;SDS011;7635;56.696;13.002;2022-12-01T05:52:35;3.05;;;2.13;;
15071;SDS011;7635;56.696;13.002;2022-12-01T05:55:02;2.45;;;1.95;;
15071;SDS011;7635;56.696;13.002;2022-12-01T05:57:30;2.42;;;2.08;;
15071;SDS011;7635;56.696;13.002;2022-12-01T05:59:57;2.90;;;2.60;;
15071;SDS011;7635;56.696;13.002;2022-12-01T06:02:25;3.20;;;2.28;;
15071;SDS011;7635;56.696;13.002;2022-12-01T06:04:52;2.83;;;2.42;;
15071;SDS011;7635;56.696;13.002;2022-12-01T06:07:19;3.30;;;2.60;;
15071;SDS011;7635;56.696;13.002;2022-12-01T06:09:48;2.40;;;2.03;;
15071;SDS011;7635;56.696;13.002;2022-12-01T06:12:15;2.28;;;2.05;;
15071;SDS011;7635;56.696;13.002;2022-12-01T06:14:41;2.20;;;2.00;;
15071;SDS011;7635;56.696;13.002;2022-12-01T06:17:08;3.77;;;2.30;;
15071;SDS011;7635;56.696;13.002;2022-12-01T06:19:36;3.00;;;2.42;;
15071;SDS011;7635;56.696;13.002;2022-12-01T06:22:03;3.10;;;2.20;;
15071;SDS011;7635;56.696;13.002;2022-12-01T06:24:30;3.13;;;2.22;;
15071;SDS011;7635;56.696;13.002;2022-12-01T06:26:57;3.35;;;2.58;;
15071;SDS011;7635;56.696;13.002;2022-12-01T06:29:24;4.72;;;2.55;;
15071;SDS011;7635;56.696;13.002;2022-12-01T06:31:50;2.33;;;2.13;;
15071;SDS011;7635;56.696;13.002;2022-12-01T06:34:17;3.15;;;2.80;;
15071;SDS011;7635;56.696;13.002;2022-12-01T06:36:45;3.80;;;2.53;;
15071;SDS011;7635;56.696;13.002;2022-12-01T06:39:13;3.17;;;2.60;;
15071;SDS011;7635;56.696;13.002;2022-12-01T06:41:40;2.60;;;2.40;;
15071;SDS011;7635;56.696;13.002;2022-12-01T06:44:07;2.78;;;2.55;;
15071;SDS011;7635;56.696;13.002;2022-12-01T06:46:34;2.73;;;2.10;;
15071;SDS011;7635;56.696;13.002;2022-12-01T06:49:01;2.53;;;2.20;;
15071;SDS011;7635;56.696;13.002;2022-12-01T06:51:28;2.42;;;2.15;;
15071;SDS011;7635;56.696;13.002;2022-12-01T06:53:59;2.43;;;2.07;;
15071;SDS011;7635;56.696;13.002;2022-12-01T06:56:25;3.42;;;2.85;;
15071;SDS011;7635;56.696;13.002;2022-12-01T06:58:52;3.08;;;2.22;;
15071;SDS011;7635;56.696;13.002;2022-12-01T07:01:19;2.73;;;2.37;;
15071;SDS011;7635;56.696;13.002;2022-12-01T07:03:46;2.63;;;2.00;;
15071;SDS011;7635;56.696;13.002;2022-12-01T07:06:13;2.58;;;2.10;;
15071;SDS011;7635;56.696;13.002;2022-12-01T07:08:41;2.13;;;1.85;;
15071;SDS011;7635;56.696;13.002;2022-12-01T07:11:10;3.17;;;2.40;;
15071;SDS011;7635;56.696;13.002;2022-12-01T07:13:38;2.73;;;2.23;;
15071;SDS011;7635;56.696;13.002;2022-12-01T07:16:06;2.67;;;1.97;;
15071;SDS011;7635;56.696;13.002;2022-12-01T07:18:34;3.20;;;2.33;;
15071;SDS011;7635;56.696;13.002;2022-12-01T07:21:03;3.25;;;2.30;;
15071;SDS011;7635;56.696;13.002;2022-12-01T07:23:31;2.97;;;2.30;;
15071;SDS011;7635;56.696;13.002;2022-12-01T07:25:59;4.07;;;2.30;;
15071;SDS011;7635;56.696;13.002;2022-12-01T07:28:28;2.45;;;2.08;;
15071;SDS011;7635;56.696;13.002;2022-12-01T07:30:59;4.15;;;2.40;;
15071;SDS011;7635;56.696;13.002;2022-12-01T07:33:27;2.40;;;2.03;;
15071;SDS011;7635;56.696;13.002;2022-12-01T07:35:54;2.75;;;1.77;;
15071;SDS011;7635;56.696;13.002;2022-12-01T07:38:20;2.20;;;1.83;;
15071;SDS011;7635;56.696;13.002;2022-12-01T07:40:47;2.53;;;2.08;;
15071;SDS011;7635;56.696;13.002;2022-12-01T07:43:14;2.20;;;2.00;;
15071;SDS011;7635;56.696;13.002;2022-12-01T07:45:42;3.83;;;2.20;;
15071;SDS011;7635;56.696;13.002;2022-12-01T07:48:09;2.87;;;2.17;;
15071;SDS011;7635;56.696;13.002;2022-12-01T07:50:36;3.28;;;2.22;;
15071;SDS011;7635;56.696;13.002;2022-12-01T07:53:03;2.37;;;1.87;;
15071;SDS011;7635;56.696;13.002;2022-12-01T07:55:29;2.80;;;2.10;;
15071;SDS011;7635;56.696;13.002;2022-12-01T07:57:57;2.97;;;2.28;;
15071;SDS011;7635;56.696;13.002;2022-12-01T08:00:25;2.30;;;1.85;;
15071;SDS011;7635;56.696;13.002;2022-12-01T08:02:53;3.13;;;2.03;;
15071;SDS011;7635;56.696;13.002;2022-12-01T08:05:20;2.83;;;1.90;;
15071;SDS011;7635;56.696;13.002;2022-12-01T08:07:47;2.53;;;2.25;;
15071;SDS011;7635;56.696;13.002;2022-12-01T08:10:13;2.97;;;2.40;;
15071;SDS011;7635;56.696;13.002;2022-12-01T08:12:40;2.83;;;2.13;;
15071;SDS011;7635;56.696;13.002;2022-12-01T08:15:07;2.30;;;2.00;;
15071;SDS011;7635;56.696;13.002;2022-12-01T08:17:35;2.97;;;2.08;;
15071;SDS011;7635;56.696;13.002;2022-12-01T08:20:03;3.33;;;2.20;;
15071;SDS011;7635;56.696;13.002;2022-12-01T08:22:31;2.33;;;1.93;;
15071;SDS011;7635;56.696;13.002;2022-12-01T08:24:58;2.30;;;1.95;;
15071;SDS011;7635;56.696;13.002;2022-12-01T08:27:25;2.08;;;1.83;;
15071;SDS011;7635;56.696;13.002;2022-12-01T08:29:51;2.78;;;2.08;;
15071;SDS011;7635;56.696;13.002;2022-12-01T08:32:18;2.58;;;2.20;;
15071;SDS011;7635;56.696;13.002;2022-12-01T08:34:45;2.13;;;1.90;;
15071;SDS011;7635;56.696;13.002;2022-12-01T08:37:14;2.63;;;2.33;;
15071;SDS011;7635;56.696;13.002;2022-12-01T08:39:41;3.05;;;2.00;;
15071;SDS011;7635;56.696;13.002;2022-12-01T08:42:07;2.30;;;2.00;;
15071;SDS011;7635;56.696;13.002;2022-12-01T08:44:34;3.10;;;2.20;;
15071;SDS011;7635;56.696;13.002;2022-12-01T08:47:01;2.22;;;1.90;;
15071;SDS011;7635;56.696;13.002;2022-12-01T08:49:27;2.43;;;1.87;;
15071;SDS011;7635;56.696;13.002;2022-12-01T08:51:54;1.83;;;1.70;;
15071;SDS011;7635;56.696;13.002;2022-12-01T08:54:22;2.60;;;2.10;;
15071;SDS011;7635;56.696;13.002;2022-12-01T08:56:49;2.10;;;1.90;;
15071;SDS011;7635;56.696;13.002;2022-12-01T08:59:16;1.90;;;1.65;;
15071;SDS011;7635;56.696;13.002;2022-12-01T09:01:43;2.33;;;1.92;;
15071;SDS011;7635;56.696;13.002;2022-12-01T09:04:19;2.60;;;1.85;;
15071;SDS011;7635;56.696;13.002;2022-12-01T09:06:48;2.20;;;1.85;;
15071;SDS011;7635;56.696;13.002;2022-12-01T09:09:17;2.03;;;1.67;;
15071;SDS011;7635;56.696;13.002;2022-12-01T09:11:46;2.22;;;1.77;;
15071;SDS011;7635;56.696;13.002;2022-12-01T09:14:14;2.33;;;2.00;;
15071;SDS011;7635;56.696;13.002;2022-12-01T09:16:42;2.17;;;1.80;;
15071;SDS011;7635;56.696;13.002;2022-12-01T09:19:10;2.13;;;1.92;;
15071;SDS011;7635;56.696;13.002;2022-12-01T09:21:37;2.38;;;1.83;;
15071;SDS011;7635;56.696;13.002;2022-12-01T09:24:04;2.27;;;2.07;;
15071;SDS011;7635;56.696;13.002;2022-12-01T09:26:32;2.75;;;2.03;;
15071;SDS011;7635;56.696;13.002;2022-12-01T09:29:01;2.13;;;1.73;;
15071;SDS011;7635;56.696;13.002;2022-12-01T09:31:30;2.13;;;1.92;;
15071;SDS011;7635;56.696;13.002;2022-12-01T09:33:58;3.00;;;2.50;;
15071;SDS011;7635;56.696;13.002;2022-12-01T09:36:26;2.13;;;1.80;;
15071;SDS011;7635;56.696;13.002;2022-12-01T09:38:54;1.92;;;1.75;;
15071;SDS011;7635;56.696;13.002;2022-12-01T09:41:22;2.42;;;1.90;;
15071;SDS011;7635;56.696;13.002;2022-12-01T09:43:53;2.00;;;1.77;;
15071;SDS011;7635;56.696;13.002;2022-12-01T09:46:27;2.67;;;1.73;;
15071;SDS011;7635;56.696;13.002;2022-12-01T09:48:58;2.40;;;2.10;;
15071;SDS011;7635;56.696;13.002;2022-12-01T09:51:27;3.03;;;2.13;;
15071;SDS011;7635;56.696;13.002;2022-12-01T09:53:58;2.30;;;2.10;;
15071;SDS011;7635;56.696;13.002;2022-12-01T09:56:28;2.37;;;1.87;;
15071;SDS011;7635;56.696;13.002;2022-12-01T09:58:57;2.30;;;2.10;;
15071;SDS011;7635;56.696;13.002;2022-12-01T10:01:30;2.95;;;2.10;;
15071;SDS011;7635;56.696;13.002;2022-12-01T10:03:59;2.55;;;2.08;;
15071;SDS011;7635;56.696;13.002;2022-12-01T10:06:35;2.95;;;2.00;;
15071;SDS011;7635;56.696;13.002;2022-12-01T10:09:09;4.07;;;2.38;;
15071;SDS011;7635;56.696;13.002;2022-12-01T10:11:44;3.47;;;2.30;;
15071;SDS011;7635;56.696;13.002;2022-12-01T10:14:13;2.50;;;2.03;;
15071;SDS011;7635;56.696;13.002;2022-12-01T10:16:43;3.75;;;2.08;;
15071;SDS011;7635;56.696;13.002;2022-12-01T10:19:14;2.80;;;1.88;;
15071;SDS011;7635;56.696;13.002;2022-12-01T10:21:54;1.73;;;1.63;;
15071;SDS011;7635;56.696;13.002;2022-12-01T10:24:41;3.30;;;2.05;;
15071;SDS011;7635;56.696;13.002;2022-12-01T10:27:19;2.80;;;1.95;;
15071;SDS011;7635;56.696;13.002;2022-12-01T10:29:55;3.08;;;2.25;;
15071;SDS011;7635;56.696;13.002;2022-12-01T10:32:33;2.50;;;2.13;;
15071;SDS011;7635;56.696;13.002;2022-12-01T10:35:10;3.43;;;2.60;;
15071;SDS011;7635;56.696;13.002;2022-12-01T10:37:45;2.85;;;2.08;;
15071;SDS011;7635;56.696;13.002;2022-12-01T10:40:15;3.72;;;2.17;;
15071;SDS011;7635;56.696;13.002;2022-12-01T10:42:43;9.32;;;3.08;;
15071;SDS011;7635;56.696;13.002;2022-12-01T10:45:14;2.63;;;2.37;;
15071;SDS011;7635;56.696;13.002;2022-12-01T10:50:39;4.18;;;2.75;;
15071;SDS011;7635;56.696;13.002;2022-12-01T10:53:08;3.50;;;3.10;;
15071;SDS011;7635;56.696;13.002;2022-12-01T10:55:58;3.75;;;2.70;;
15071;SDS011;7635;56.696;13.002;2022-12-01T10:58:29;2.60;;;2.33;;
15071;SDS011;7635;56.696;13.002;2022-12-01T11:00:57;3.92;;;2.78;;
15071;SDS011;7635;56.696;13.002;2022-12-01T11:03:27;5.23;;;2.93;;
15071;SDS011;7635;56.696;13.002;2022-12-01T11:05:56;3.97;;;2.42;;
15071;SDS011;7635;56.696;13.002;2022-12-01T11:08:29;5.07;;;3.00;;
15071;SDS011;7635;56.696;13.002;2022-12-01T11:11:01;5.77;;;3.20;;
15071;SDS011;7635;56.696;13.002;2022-12-01T11:13:29;4.38;;;2.53;;
15071;SDS011;7635;56.696;13.002;2022-12-01T11:15:59;2.72;;;2.20;;
15071;SDS011;7635;56.696;13.002;2022-12-01T11:18:29;2.97;;;2.45;;
15071;SDS011;7635;56.696;13.002;2022-12-01T11:21:06;3.88;;;2.28;;
15071;SDS011;7635;56.696;13.002;2022-12-01T11:23:35;3.55;;;2.35;;
15071;SDS011;7635;56.696;13.002;2022-12-01T11:26:10;3.75;;;2.80;;
15071;SDS011;7635;56.696;13.002;2022-12-01T11:28:41;4.25;;;2.45;;
15071;SDS011;7635;56.696;13.002;2022-12-01T11:31:17;3.03;;;2.42;;
15071;SDS011;7635;56.696;13.002;2022-12-01T11:33:48;3.10;;;2.08;;
15071;SDS011;7635;56.696;13.002;2022-12-01T11:36:21;2.80;;;2.50;;
15071;SDS011;7635;56.696;13.002;2022-12-01T11:38:55;3.03;;;2.40;;
15071;SDS011;7635;56.696;13.002;2022-12-01T11:41:26;4.70;;;2.70;;
15071;SDS011;7635;56.696;13.002;2022-12-01T11:43:58;3.28;;;2.40;;
15071;SDS011;7635;56.696;13.002;2022-12-01T11:46:28;4.60;;;2.88;;
15071;SDS011;7635;56.696;13.002;2022-12-01T11:49:00;3.78;;;2.30;;
15071;SDS011;7635;56.696;13.002;2022-12-01T11:51:28;3.20;;;2.53;;
15071;SDS011;7635;56.696;13.002;2022-12-01T11:54:04;3.53;;;2.53;;
15071;SDS011;7635;56.696;13.002;2022-12-01T11:56:38;3.58;;;2.42;;
15071;SDS011;7635;56.696;13.002;2022-12-01T11:59:08;4.50;;;2.95;;
15071;SDS011;7635;56.696;13.002;2022-12-01T12:01:39;3.83;;;2.50;;
15071;SDS011;7635;56.696;13.002;2022-12-01T12:04:24;5.78;;;2.63;;
15071;SDS011;7635;56.696;13.002;2022-12-01T12:07:01;4.18;;;2.65;;
15071;SDS011;7635;56.696;13.002;2022-12-01T12:09:39;4.82;;;3.13;;
15071;SDS011;7635;56.696;13.002;2022-12-01T12:12:21;4.85;;;2.80;;
15071;SDS011;7635;56.696;13.002;2022-12-01T12:15:01;5.10;;;2.90;;
15071;SDS011;7635;56.696;13.002;2022-12-01T12:17:43;3.65;;;2.85;;
15071;SDS011;7635;56.696;13.002;2022-12-01T12:20:23;3.33;;;2.22;;
15071;SDS011;7635;56.696;13.002;2022-12-01T12:23:24;4.63;;;2.85;;
15071;SDS011;7635;56.696;13.002;2022-12-01T12:26:02;4.97;;;2.73;;
15071;SDS011;7635;56.696;13.002;2022-12-01T12:28:42;6.00;;;3.42;;
15071;SDS011;7635;56.696;13.002;2022-12-01T12:31:20;4.80;;;2.90;;
15071;SDS011;7635;56.696;13.002;2022-12-01T12:33:57;5.38;;;3.45;;
15071;SDS011;7635;56.696;13.002;2022-12-01T12:36:53;4.97;;;3.38;;
15071;SDS011;7635;56.696;13.002;2022-12-01T12:39:30;4.32;;;3.25;;
15071;SDS011;7635;56.696;13.002;2022-12-01T12:42:12;4.82;;;3.05;;
15071;SDS011;7635;56.696;13.002;2022-12-01T12:44:49;4.32;;;3.40;;
15071;SDS011;7635;56.696;13.002;2022-12-01T12:47:24;3.97;;;2.67;;
15071;SDS011;7635;56.696;13.002;2022-12-01T12:50:07;4.20;;;2.60;;
15071;SDS011;7635;56.696;13.002;2022-12-01T12:52:44;7.75;;;3.97;;
15071;SDS011;7635;56.696;13.002;2022-12-01T12:55:14;5.15;;;2.70;;
15071;SDS011;7635;56.696;13.002;2022-12-01T12:57:46;4.28;;;2.90;;
15071;SDS011;7635;56.696;13.002;2022-12-01T13:00:19;4.07;;;3.10;;
15071;SDS011;7635;56.696;13.002;2022-12-01T13:02:48;5.57;;;3.50;;
15071;SDS011;7635;56.696;13.002;2022-12-01T13:05:19;3.70;;;2.53;;
15071;SDS011;7635;56.696;13.002;2022-12-01T13:07:52;4.93;;;3.28;;
15071;SDS011;7635;56.696;13.002;2022-12-01T13:10:25;6.90;;;3.40;;
15071;SDS011;7635;56.696;13.002;2022-12-01T13:12:59;4.03;;;2.95;;
15071;SDS011;7635;56.696;13.002;2022-12-01T13:15:29;5.53;;;3.13;;
15071;SDS011;7635;56.696;13.002;2022-12-01T13:18:01;4.82;;;3.17;;
15071;SDS011;7635;56.696;13.002;2022-12-01T13:20:37;4.65;;;3.03;;
15071;SDS011;7635;56.696;13.002;2022-12-01T13:23:07;4.83;;;3.10;;
15071;SDS011;7635;56.696;13.002;2022-12-01T13:25:39;6.57;;;3.45;;
15071;SDS011;7635;56.696;13.002;2022-12-01T13:28:11;5.38;;;3.28;;
15071;SDS011;7635;56.696;13.002;2022-12-01T13:30:55;4.63;;;3.15;;
15071;SDS011;7635;56.696;13.002;2022-12-01T13:33:24;5.30;;;2.80;;
15071;SDS011;7635;56.696;13.002;2022-12-01T13:35:52;4.03;;;2.97;;
15071;SDS011;7635;56.696;13.002;2022-12-01T13:38:23;4.72;;;3.10;;
15071;SDS011;7635;56.696;13.002;2022-12-01T13:43:54;5.80;;;3.42;;
15071;SDS011;7635;56.696;13.002;2022-12-01T13:46:28;4.43;;;3.10;;
15071;SDS011;7635;56.696;13.002;2022-12-01T13:48:57;5.28;;;2.92;;
15071;SDS011;7635;56.696;13.002;2022-12-01T13:51:25;6.43;;;4.03;;
15071;SDS011;7635;56.696;13.002;2022-12-01T13:54:04;4.07;;;3.22;;
15071;SDS011;7635;56.696;13.002;2022-12-01T13:56:57;4.33;;;2.80;;
15071;SDS011;7635;56.696;13.002;2022-12-01T13:59:37;4.30;;;3.05;;
15071;SDS011;7635;56.696;13.002;2022-12-01T14:02:12;4.60;;;3.00;;
15071;SDS011;7635;56.696;13.002;2022-12-01T14:04:41;4.80;;;3.17;;
15071;SDS011;7635;56.696;13.002;2022-12-01T14:07:12;3.63;;;2.88;;
15071;SDS011;7635;56.696;13.002;2022-12-01T14:13:01;5.40;;;3.63;;
15071;SDS011;7635;56.696;13.002;2022-12-01T14:15:31;5.32;;;3.58;;
15071;SDS011;7635;56.696;13.002;2022-12-01T14:18:02;4.10;;;3.03;;
15071;SDS011;7635;56.696;13.002;2022-12-01T14:20:31;4.60;;;3.13;;
15071;SDS011;7635;56.696;13.002;2022-12-01T14:23:03;3.88;;;3.17;;
15071;SDS011;7635;56.696;13.002;2022-12-01T14:25:39;5.18;;;3.42;;
15071;SDS011;7635;56.696;13.002;2022-12-01T14:28:14;4.70;;;3.57;;
15071;SDS011;7635;56.696;13.002;2022-12-01T14:30:59;5.88;;;3.13;;
15071;SDS011;7635;56.696;13.002;2022-12-01T14:33:44;5.67;;;3.67;;
15071;SDS011;7635;56.696;13.002;2022-12-01T14:36:22;6.22;;;3.47;;
15071;SDS011;7635;56.696;13.002;2022-12-01T14:38:59;4.43;;;3.15;;
15071;SDS011;7635;56.696;13.002;2022-12-01T14:41:32;4.68;;;3.33;;
15071;SDS011;7635;56.696;13.002;2022-12-01T14:44:10;4.50;;;3.33;;
15071;SDS011;7635;56.696;13.002;2022-12-01T14:46:44;5.03;;;3.07;;
15071;SDS011;7635;56.696;13.002;2022-12-01T14:49:19;4.47;;;3.08;;
15071;SDS011;7635;56.696;13.002;2022-12-01T14:51:51;4.73;;;2.97;;
15071;SDS011;7635;56.696;13.002;2022-12-01T14:54:23;4.57;;;3.30;;
15071;SDS011;7635;56.696;13.002;2022-12-01T14:57:08;3.63;;;3.10;;
15071;SDS011;7635;56.696;13.002;2022-12-01T14:59:37;6.13;;;3.75;;
15071;SDS011;7635;56.696;13.002;2022-12-01T15:02:05;4.93;;;3.08;;
15071;SDS011;7635;56.696;13.002;2022-12-01T15:07:43;3.97;;;2.75;;
15071;SDS011;7635;56.696;13.002;2022-12-01T15:10:17;5.60;;;3.40;;
15071;SDS011;7635;56.696;13.002;2022-12-01T15:12:48;5.30;;;3.00;;
15071;SDS011;7635;56.696;13.002;2022-12-01T15:15:16;5.03;;;3.45;;
15071;SDS011;7635;56.696;13.002;2022-12-01T15:17:45;5.18;;;3.53;;
15071;SDS011;7635;56.696;13.002;2022-12-01T15:22:59;4.50;;;3.28;;
15071;SDS011;7635;56.696;13.002;2022-12-01T15:25:33;8.02;;;3.53;;
15071;SDS011;7635;56.696;13.002;2022-12-01T15:28:08;4.15;;;3.17;;